Archival Weather

Norman Y Mineta San Jose Intl

San Jose, California (KSJC)

Report from: Saturday, September 30, 2023 3:53 AM PDT
Current time: Thursday, July 18, 2024 7:50 PM PDT

Current weather – Weather history – Daily summaries
Weather forecast

Temperature16.7°C (62.1°F)
Dew point14.4°C (57.9°F)
Winds Calm
Visibility10 mi. (16.1 km)
Clouds Ceiling: Broken clouds 1,400 ft. (427 m)
Broken clouds 1,800 ft. (549 m)
Overcast 3,800 ft. (1,158 m)
Altimeter29.78 in.Hg (1008 mB)
Precipitiation0.02 in. (1 mm)
Precip. events Rain ended 10:51 AM
Relative humidity86 %
Density altitude588 ft. (179 m)
Sea-level pressure100.9 kPa (1009 mB, 29.78 in.Hg)
Remarks Fully automated report
Automated weather observing station with precipitation discriminator
Flight conditions Marginal Visual Meteorological Conditions
Raw dataKSJC 301053Z AUTO 00000KT 10SM BKN014 BKN018 OVC038 17/14 A2978 RMK AO2 RAE51 SLP085 P0002 T01670144
An error has occurred. This application may no longer respond until reloaded. Reload 🗙